Time;durP1;ratioP1;P1;durP2;ratioP2;P2;SDS_P1;SDS_P2;PMS_P1;PMS_P2;Temp;Humidity;BMP_temperature;BMP_pressure;BME280_temperature;BME280_humidity;BME280_pressure;Samples;Min_cycle;Max_cycle;Signal;HPM_P1;HPM_P2
2023/06/06 00:00:14;;;;;;;0.10;0.10;;;16.10;99.90;;;;;;5059204;28;20193;-88
2023/06/06 00:02:43;;;;;;;0.60;0.60;;;16.10;99.90;;;;;;5058471;28;20027;-76
2023/06/06 00:05:13;;;;;;;5.07;4.32;;;16.00;99.90;;;;;;5040616;28;20032;-78
2023/06/06 00:07:41;;;;;;;0.20;0.20;;;16.10;99.90;;;;;;5041453;28;20130;-88
2023/06/06 00:10:11;;;;;;;0.20;0.20;;;16.10;99.90;;;;;;5041193;28;20044;-86
2023/06/06 00:12:37;;;;;;;0.10;0.10;;;16.00;99.90;;;;;;5060358;28;20178;-87
2023/06/06 00:15:05;;;;;;;0.13;0.13;;;12.40;99.90;;;;;;5042263;28;20028;-81
2023/06/06 00:17:35;;;;;;;0.10;0.10;;;16.00;99.90;;;;;;5058793;28;20267;-83
2023/06/06 00:20:03;;;;;;;0.20;0.20;;;16.10;99.90;;;;;;5060112;28;20021;-91
2023/06/06 00:22:29;;;;;;;0.10;0.10;;;16.10;99.90;;;;;;5059303;28;20048;-82
2023/06/06 00:24:55;;;;;;;0.10;0.10;;;16.10;99.90;;;;;;5025467;28;20075;-81
2023/06/06 00:27:21;;;;;;;0.20;0.20;;;;;;;;;;5060768;28;20024;-85
2023/06/06 00:29:47;;;;;;;0.10;0.10;;;16.00;99.90;;;;;;5060416;28;20220;-77
2023/06/06 00:32:12;;;;;;;0.20;0.20;;;16.00;99.90;;;;;;5058562;28;20099;-89
2023/06/06 00:34:38;;;;;;;0.10;0.10;;;15.90;99.90;;;;;;5059913;28;20044;-87
2023/06/06 00:37:04;;;;;;;0.10;0.10;;;15.90;99.90;;;;;;5061455;28;20178;-82
2023/06/06 00:39:30;;;;;;;0.20;0.20;;;15.90;99.90;;;;;;5063844;28;20028;-90
2023/06/06 00:41:56;;;;;;;0.20;0.20;;;16.00;99.90;;;;;;5063266;28;20058;-85
2023/06/06 00:44:21;;;;;;;0.10;0.10;;;16.00;99.90;;;;;;5063146;28;20275;-84
2023/06/06 00:46:48;;;;;;;0.10;0.10;;;16.00;99.90;;;;;;5063349;28;20400;-80
2023/06/06 00:49:17;;;;;;;0.10;0.10;;;16.00;99.90;;;;;;5044835;28;20021;-85
2023/06/06 00:51:43;;;;;;;0.20;0.20;;;15.90;99.90;;;;;;5045214;28;20043;-84
2023/06/06 00:54:15;;;;;;;0.10;0.10;;;16.00;99.90;;;;;;5062715;28;20058;-79
2023/06/06 00:56:44;;;;;;;0.20;0.20;;;15.90;99.90;;;;;;5062653;28;20270;-78
2023/06/06 00:59:10;;;;;;;0.10;0.10;;;16.00;99.90;;;;;;5063025;28;20214;-82
2023/06/06 01:01:38;;;;;;;0.20;0.20;;;16.00;99.90;;;;;;5062866;28;20024;-83
2023/06/06 01:04:08;;;;;;;1.55;1.10;;;16.00;99.90;;;;;;5063997;28;20458;-91
2023/06/06 01:06:37;;;;;;;0.20;0.20;;;16.10;99.90;;;;;;5070316;28;20048;-78
2023/06/06 01:09:09;;;;;;;0.13;0.13;;;16.00;99.90;;;;;;5071036;28;20432;-82
2023/06/06 01:12:13;;;;;;;0.10;0.10;;;16.00;99.90;;;;;;5070251;28;20100;-82
2023/06/06 01:15:00;;;;;;;0.10;0.10;;;16.00;99.90;;;;;;4967339;28;20054;-78
2023/06/06 01:17:26;;;;;;;0.20;0.20;;;16.00;99.90;;;;;;4962555;28;20045;-79
2023/06/06 01:19:56;;;;;;;0.28;0.28;;;16.10;99.90;;;;;;4961072;28;20015;-82
2023/06/06 01:22:22;;;;;;;0.20;0.20;;;16.00;99.90;;;;;;4960970;28;20117;-82
2023/06/06 01:24:53;;;;;;;0.17;0.17;;;16.00;99.90;;;;;;4960175;28;20030;-79
2023/06/06 01:27:21;;;;;;;0.60;0.60;;;16.00;99.90;;;;;;4960234;28;20031;-88
2023/06/06 01:29:47;;;;;;;4.18;3.85;;;16.00;99.90;;;;;;4960460;28;20027;-87
2023/06/06 01:32:34;;;;;;;0.20;0.20;;;17.60;99.90;;;;;;4961971;28;20505;-86
2023/06/06 01:35:10;;;;;;;0.20;0.20;;;16.00;99.90;;;;;;4960981;28;20090;-81
2023/06/06 01:38:23;;;;;;;0.10;0.10;;;16.00;99.90;;;;;;4961306;28;20027;-84
2023/06/06 01:40:54;;;;;;;0.20;0.20;;;16.10;99.90;;;;;;4903143;29;20520;-81
2023/06/06 01:43:24;;;;;;;0.10;0.10;;;16.00;99.90;;;;;;4902620;29;20149;-81
2023/06/06 01:45:50;;;;;;;0.20;0.20;;;16.00;99.90;;;;;;4886831;29;20060;-83
2023/06/06 01:48:18;;;;;;;0.20;0.20;;;16.00;99.90;;;;;;4927336;28;20060;-84
2023/06/06 01:50:54;;;;;;;0.20;0.20;;;15.90;99.90;;;;;;4980120;28;20368;-86
2023/06/06 01:53:20;;;;;;;0.10;0.10;;;15.90;99.90;;;;;;4979843;28;20557;-81
2023/06/06 01:55:48;;;;;;;0.90;0.85;;;15.90;99.90;;;;;;4979824;28;20101;-86
2023/06/06 01:58:16;;;;;;;1.95;1.85;;;15.90;99.90;;;;;;4980389;28;20540;-79
2023/06/06 02:00:43;;;;;;;0.10;0.10;;;15.90;99.90;;;;;;4963845;28;20141;-79
2023/06/06 02:03:09;;;;;;;1.17;1.10;;;15.90;99.90;;;;;;4962794;28;20089;-79
2023/06/06 02:05:38;;;;;;;0.10;0.10;;;15.90;99.90;;;;;;4978760;28;20052;-79
2023/06/06 02:08:05;;;;;;;0.10;0.10;;;14.30;99.90;;;;;;4962476;28;20396;-87
2023/06/06 02:10:31;;;;;;;0.10;0.10;;;15.80;99.90;;;;;;4979002;28;20493;-83
2023/06/06 02:12:57;;;;;;;0.20;0.20;;;15.80;99.90;;;;;;4978486;28;20339;-80
2023/06/06 02:15:29;;;;;;;0.10;0.10;;;15.80;99.90;;;;;;4962442;28;20065;-79
2023/06/06 02:17:57;;;;;;;0.43;0.43;;;18.10;99.90;;;;;;5023330;28;20399;-83
2023/06/06 02:20:25;;;;;;;0.20;0.20;;;15.80;99.90;;;;;;5060130;28;20131;-79
2023/06/06 02:22:59;;;;;;;0.17;0.17;;;15.50;99.90;;;;;;5042601;28;20532;-79
2023/06/06 02:25:27;;;;;;;22.50;2.15;;;16.00;99.90;;;;;;5041255;28;20242;-85
2023/06/06 02:27:55;;;;;;;0.13;0.13;;;15.70;99.90;;;;;;5042553;28;20037;-85
2023/06/06 02:30:24;;;;;;;0.20;0.20;;;15.70;99.90;;;;;;5060406;28;20024;-81
2023/06/06 02:32:50;;;;;;;0.13;0.13;;;15.70;99.90;;;;;;5042597;28;20021;-80
2023/06/06 02:35:19;;;;;;;0.15;0.15;;;15.70;99.90;;;;;;5042844;28;20599;-83
2023/06/06 02:37:45;;;;;;;0.10;0.10;;;15.70;99.90;;;;;;5061068;28;20032;-78
2023/06/06 02:40:13;;;;;;;0.20;0.20;;;15.70;99.90;;;;;;5060663;28;20086;-84
2023/06/06 02:42:39;;;;;;;5.35;4.93;;;15.60;99.90;;;;;;5042169;28;20371;-85
2023/06/06 02:45:08;;;;;;;0.10;0.10;;;15.60;99.90;;;;;;5060544;28;20108;-78
2023/06/06 02:47:36;;;;;;;0.10;0.10;;;15.90;99.90;;;;;;5043897;28;20028;-79
2023/06/06 02:50:03;;;;;;;0.17;0.17;;;15.40;99.90;;;;;;5062406;28;20340;-79
2023/06/06 02:52:35;;;;;;;0.10;0.10;;;15.50;99.90;;;;;;5044223;28;20509;-89
2023/06/06 02:55:01;;;;;;;0.20;0.20;;;15.50;99.90;;;;;;5024377;28;20662;-79
2023/06/06 02:57:30;;;;;;;0.10;0.10;;;15.50;99.90;;;;;;5041333;28;20032;-79
2023/06/06 02:59:58;;;;;;;0.17;0.17;;;;;;;;;;5022550;28;20029;-81
2023/06/06 03:02:24;;;;;;;0.10;0.10;;;15.40;99.90;;;;;;5021856;28;20021;-81
2023/06/06 03:04:50;;;;;;;1.25;1.17;;;15.40;99.90;;;;;;5039658;28;20029;-83
2023/06/06 03:07:16;;;;;;;0.20;0.20;;;15.40;99.90;;;;;;5039678;28;20025;-81
2023/06/06 03:09:46;;;;;;;0.20;0.20;;;15.40;99.90;;;;;;5039390;28;20518;-83
2023/06/06 03:12:11;;;;;;;0.35;0.35;;;13.50;99.90;;;;;;5039337;28;20036;-79
2023/06/06 03:14:37;;;;;;;0.10;0.10;;;15.40;99.90;;;;;;5039424;28;20021;-83
2023/06/06 03:17:03;;;;;;;0.75;0.75;;;15.40;99.90;;;;;;5039809;28;20524;-82
2023/06/06 03:19:30;;;;;;;0.20;0.20;;;15.50;99.90;;;;;;5040561;28;20036;-76
2023/06/06 03:21:57;;;;;;;0.10;0.10;;;15.50;99.90;;;;;;5040357;28;20313;-80
2023/06/06 03:24:25;;;;;;;0.20;0.20;;;15.50;99.90;;;;;;5039418;28;20021;-79
2023/06/06 03:26:50;;;;;;;0.10;0.10;;;15.50;99.90;;;;;;5039530;28;20309;-84
2023/06/06 03:29:19;;;;;;;3.65;0.85;;;15.50;99.90;;;;;;5040381;28;20043;-77
2023/06/06 03:31:48;;;;;;;0.15;0.15;;;15.50;99.90;;;;;;5040445;28;20675;-86
2023/06/06 03:34:14;;;;;;;0.20;0.20;;;15.50;99.90;;;;;;5039746;28;20016;-81
2023/06/06 03:36:40;;;;;;;0.10;0.10;;;15.40;99.90;;;;;;5039767;28;20021;-79
2023/06/06 03:39:06;;;;;;;0.10;0.10;;;15.40;99.90;;;;;;5039335;28;20051;-84
2023/06/06 03:41:32;;;;;;;0.10;0.10;;;15.40;99.90;;;;;;5020819;28;20029;-79
2023/06/06 03:44:00;;;;;;;0.20;0.20;;;16.20;99.90;;;;;;5020795;28;20370;-80
2023/06/06 03:46:26;;;;;;;0.20;0.20;;;15.30;99.90;;;;;;5038694;28;20060;-81
2023/06/06 03:48:55;;;;;;;0.20;0.20;;;15.30;99.90;;;;;;5038481;28;20477;-78
2023/06/06 03:51:20;;;;;;;0.10;0.10;;;18.40;99.90;;;;;;5038911;28;20044;-83
2023/06/06 03:53:46;;;;;;;0.55;0.55;;;15.30;99.90;;;;;;5046999;28;20254;-79
2023/06/06 03:56:12;;;;;;;0.10;0.10;;;15.40;99.90;;;;;;5059036;28;20475;-87
2023/06/06 03:58:38;;;;;;;0.20;0.20;;;15.40;99.90;;;;;;5059200;28;20020;-79
2023/06/06 04:01:03;;;;;;;0.68;0.68;;;15.40;99.90;;;;;;5058971;28;20374;-84
2023/06/06 04:03:36;;;;;;;0.20;0.20;;;15.50;99.90;;;;;;5058747;28;20339;-78
2023/06/06 04:06:06;;;;;;;0.10;0.10;;;15.50;99.90;;;;;;5058189;28;20215;-80
2023/06/06 04:08:37;;;;;;;0.10;0.10;;;15.50;99.90;;;;;;5041382;28;20275;-80
2023/06/06 04:11:03;;;;;;;0.20;0.20;;;15.60;99.90;;;;;;5058033;28;20025;-79
2023/06/06 04:13:28;;;;;;;0.40;0.40;;;15.60;99.90;;;;;;5058949;28;20255;-86
2023/06/06 04:15:54;;;;;;;0.10;0.10;;;15.70;99.90;;;;;;5059048;28;20133;-84
2023/06/06 04:18:20;;;;;;;0.20;0.20;;;15.70;99.90;;;;;;5058525;28;20024;-80
2023/06/06 04:20:46;;;;;;;0.22;0.22;;;15.70;99.90;;;;;;5059770;28;20393;-89
2023/06/06 04:23:12;;;;;;;20.27;16.95;;;15.80;99.90;;;;;;5058891;28;20239;-84
2023/06/06 04:25:37;;;;;;;0.30;0.30;;;15.80;99.90;;;;;;5058798;28;20394;-81
2023/06/06 04:28:05;;;;;;;0.30;0.30;;;15.80;99.90;;;;;;5058966;28;20294;-79
2023/06/06 04:30:32;;;;;;;0.20;0.20;;;15.90;99.90;;;;;;5041092;28;20392;-80
2023/06/06 04:33:01;;;;;;;0.17;0.17;;;15.90;99.90;;;;;;5058807;28;20281;-81
2023/06/06 04:35:30;;;;;;;0.10;0.10;;;16.00;99.90;;;;;;5058885;28;20056;-83
2023/06/06 04:37:57;;;;;;;0.60;0.60;;;16.00;99.90;;;;;;5058499;28;20016;-82
2023/06/06 04:40:25;;;;;;;0.17;0.17;;;16.10;99.90;;;;;;5040753;28;20056;-81
2023/06/06 04:42:57;;;;;;;1.30;1.20;;;16.10;99.90;;;;;;5058590;28;20619;-85
2023/06/06 04:45:23;;;;;;;0.52;0.52;;;16.10;99.90;;;;;;5058234;28;20036;-83
2023/06/06 04:47:55;;;;;;;0.35;0.35;;;16.20;99.90;;;;;;5058002;28;20048;-79
2023/06/06 04:50:23;;;;;;;0.10;0.10;;;16.20;99.90;;;;;;5039787;28;20036;-79
2023/06/06 04:52:48;;;;;;;4.30;2.30;;;16.20;99.90;;;;;;5040754;28;20017;-79
2023/06/06 04:55:15;;;;;;;0.13;0.13;;;16.20;99.90;;;;;;5058201;28;20093;-79
2023/06/06 04:57:44;;;;;;;0.85;0.85;;;16.20;99.90;;;;;;5037774;28;20039;-88
2023/06/06 05:00:14;;;;;;;2.15;1.98;;;16.30;99.90;;;;;;5059476;28;20384;-86
2023/06/06 05:02:40;;;;;;;0.57;0.55;;;16.30;99.90;;;;;;5058656;28;20040;-84
2023/06/06 05:05:09;;;;;;;0.10;0.10;;;16.30;99.90;;;;;;5058832;28;20328;-80
2023/06/06 05:07:38;;;;;;;0.17;0.17;;;16.30;99.90;;;;;;5057706;28;20216;-79
2023/06/06 05:10:05;;;;;;;0.40;0.40;;;16.40;99.90;;;;;;5039763;28;20780;-82
2023/06/06 05:12:32;;;;;;;0.75;0.75;;;16.40;99.90;;;;;;5057953;28;20141;-82
2023/06/06 05:15:00;;;;;;;0.20;0.20;;;16.50;99.90;;;;;;5058758;28;20025;-79
2023/06/06 05:17:27;;;;;;;0.10;0.10;;;13.80;99.90;;;;;;5060442;28;20032;-82
2023/06/06 05:19:56;;;;;;;0.30;0.30;;;16.60;99.90;;;;;;5043383;28;20029;-85
2023/06/06 05:22:22;;;;;;;0.10;0.10;;;16.60;99.90;;;;;;5062533;28;20025;-87
2023/06/06 05:24:50;;;;;;;0.10;0.10;;;16.70;99.90;;;;;;5065463;28;20457;-83
2023/06/06 05:27:18;;;;;;;0.15;0.15;;;16.70;99.90;;;;;;5063312;28;20024;-81
2023/06/06 05:29:44;;;;;;;0.10;0.10;;;16.80;99.90;;;;;;5044324;28;20707;-84
2023/06/06 05:32:12;;;;;;;0.10;0.10;;;16.80;99.90;;;;;;5061854;28;20100;-80
2023/06/06 05:34:39;;;;;;;0.50;0.50;;;16.90;99.90;;;;;;5061977;28;20313;-84
2023/06/06 05:37:08;;;;;;;1.65;1.48;;;16.90;99.90;;;;;;5061048;28;20055;-79
2023/06/06 05:39:34;;;;;;;0.10;0.10;;;16.90;99.90;;;;;;5044779;28;20029;-78
2023/06/06 05:42:01;;;;;;;0.10;0.10;;;17.00;99.90;;;;;;5043175;28;20268;-80
2023/06/06 05:44:26;;;;;;;0.10;0.10;;;17.00;99.90;;;;;;5060560;28;20056;-80
2023/06/06 05:47:03;;;;;;;0.17;0.17;;;17.10;99.90;;;;;;5060523;28;20474;-79
2023/06/06 05:49:32;;;;;;;0.10;0.10;;;17.10;99.90;;;;;;5042278;28;20028;-80
2023/06/06 05:52:04;;;;;;;0.20;0.20;;;17.30;99.90;;;;;;5042000;28;20025;-83
2023/06/06 05:54:29;;;;;;;4.20;3.92;;;17.30;99.90;;;;;;5060460;28;20048;-84
2023/06/06 05:56:57;;;;;;;0.13;0.13;;;17.40;99.90;;;;;;5060150;28;20043;-88
2023/06/06 05:59:27;;;;;;;0.10;0.10;;;17.50;99.90;;;;;;5061235;28;20179;-85
2023/06/06 06:01:58;;;;;;;0.10;0.10;;;17.60;99.90;;;;;;5041390;28;20035;-80
2023/06/06 06:04:24;;;;;;;0.10;0.10;;;17.80;99.90;;;;;;5061050;28;20080;-83
2023/06/06 06:06:50;;;;;;;0.20;0.20;;;17.80;99.90;;;;;;5060882;28;20020;-77
2023/06/06 06:09:22;;;;;;;0.40;0.40;;;17.80;99.90;;;;;;5042697;28;20028;-83
2023/06/06 06:11:50;;;;;;;0.10;0.10;;;17.60;99.90;;;;;;5060633;28;20025;-81
2023/06/06 06:14:16;;;;;;;1.00;0.95;;;17.90;99.90;;;;;;5043114;28;20024;-80
2023/06/06 06:16:44;;;;;;;0.15;0.15;;;18.10;99.90;;;;;;5061226;28;20020;-78
2023/06/06 06:19:10;;;;;;;2.83;1.58;;;18.60;99.90;;;;;;5061313;28;20063;-78
2023/06/06 06:21:36;;;;;;;0.10;0.10;;;16.70;99.90;;;;;;5061371;28;20059;-78
2023/06/06 06:24:02;;;;;;;0.30;0.30;;;18.00;99.90;;;;;;5042669;28;20025;-80
2023/06/06 06:26:29;;;;;;;0.40;0.40;;;18.10;99.90;;;;;;5043267;28;20086;-78
2023/06/06 06:28:55;;;;;;;0.20;0.20;;;18.10;99.90;;;;;;5060482;28;20625;-79
2023/06/06 06:31:21;;;;;;;0.10;0.10;;;18.20;99.90;;;;;;5061712;28;20014;-82
2023/06/06 06:33:47;;;;;;;0.10;0.10;;;18.20;99.90;;;;;;5060733;28;20358;-78
2023/06/06 06:36:13;;;;;;;0.30;0.30;;;18.20;99.90;;;;;;5041831;28;20020;-84
2023/06/06 06:38:39;;;;;;;0.10;0.10;;;18.20;99.90;;;;;;5060787;28;20198;-82
2023/06/06 06:41:04;;;;;;;0.65;0.65;;;18.20;99.90;;;;;;5059730;28;20051;-78
2023/06/06 06:43:30;;;;;;;0.20;0.20;;;18.30;99.90;;;;;;5060424;28;20027;-77
2023/06/06 06:45:56;;;;;;;0.10;0.10;;;18.30;99.90;;;;;;5041928;28;20495;-83
2023/06/06 06:48:22;;;;;;;0.10;0.10;;;18.40;99.90;;;;;;5060727;28;20013;-86
2023/06/06 06:50:52;;;;;;;0.10;0.10;;;18.40;99.90;;;;;;5061530;28;20284;-80
2023/06/06 06:53:18;;;;;;;0.10;0.10;;;18.50;99.90;;;;;;5060864;28;20044;-79
2023/06/06 06:55:55;;;;;;;0.10;0.10;;;18.60;99.90;;;;;;5060734;28;20111;-85
2023/06/06 06:58:33;;;;;;;0.13;0.13;;;20.10;99.90;;;;;;5060865;28;20058;-88
2023/06/06 07:01:01;;;;;;;0.40;0.35;;;18.60;99.90;;;;;;5060070;28;20024;-84
2023/06/06 07:03:28;;;;;;;0.10;0.10;;;18.70;99.90;;;;;;5043223;28;20225;-82
2023/06/06 07:05:57;;;;;;;0.10;0.10;;;18.90;99.90;;;;;;5061006;28;20036;-84
2023/06/06 07:08:26;;;;;;;0.10;0.10;;;18.90;99.90;;;;;;5059651;28;20479;-82
2023/06/06 07:10:52;;;;;;;0.10;0.10;;;18.10;99.90;;;;;;5059854;28;20362;-86
2023/06/06 07:13:18;;;;;;;0.10;0.10;;;19.00;99.90;;;;;;5059798;28;20024;-79
2023/06/06 07:15:44;;;;;;;0.10;0.10;;;19.20;99.90;;;;;;5059847;28;20053;-83
2023/06/06 07:18:10;;;;;;;0.10;0.10;;;19.20;99.90;;;;;;5058946;28;20064;-78
2023/06/06 07:20:35;;;;;;;0.10;0.10;;;19.30;99.90;;;;;;5041394;28;20029;-83
2023/06/06 07:23:02;;;;;;;0.30;0.30;;;;;;;;;;5040372;28;20028;-78
2023/06/06 07:25:28;;;;;;;0.20;0.20;;;19.50;99.90;;;;;;5059230;28;20400;-81
2023/06/06 07:27:54;;;;;;;0.10;0.10;;;19.60;99.90;;;;;;5059281;28;20179;-81
2023/06/06 07:30:20;;;;;;;0.35;0.35;;;19.60;99.90;;;;;;5058944;28;20161;-83
2023/06/06 07:32:47;;;;;;;0.68;0.68;;;19.60;99.90;;;;;;5049387;28;20021;-79
2023/06/06 07:35:14;;;;;;;0.20;0.20;;;20.30;99.90;;;;;;5039297;28;20610;-85
2023/06/06 07:37:40;;;;;;;0.10;0.10;;;19.80;99.90;;;;;;5041402;28;20024;-76
2023/06/06 07:40:08;;;;;;;0.10;0.10;;;19.80;99.90;;;;;;5041233;28;20075;-84
2023/06/06 07:42:35;;;;;;;0.20;0.20;;;20.00;99.90;;;;;;5039711;28;20020;-75
2023/06/06 07:45:01;;;;;;;0.77;0.77;;;20.20;99.90;;;;;;5041573;28;20025;-83
2023/06/06 07:47:27;;;;;;;0.10;0.10;;;20.40;99.90;;;;;;5023865;28;20025;-80
2023/06/06 07:49:55;;;;;;;0.25;0.25;;;20.50;99.90;;;;;;5042309;28;20040;-85
2023/06/06 07:52:21;;;;;;;0.10;0.10;;;20.70;99.90;;;;;;5041062;28;20035;-87
2023/06/06 07:54:47;;;;;;;0.88;0.85;;;21.50;99.90;;;;;;5055182;28;20045;-81
2023/06/06 07:57:15;;;;;;;0.10;0.10;;;21.00;99.90;;;;;;5061255;28;20016;-88
2023/06/06 07:59:43;;;;;;;0.10;0.10;;;21.20;99.90;;;;;;5061209;28;20054;-86
2023/06/06 08:02:10;;;;;;;0.70;0.47;;;21.50;99.90;;;;;;5062776;28;20032;-79
2023/06/06 08:04:35;;;;;;;0.38;0.38;;;21.50;99.90;;;;;;5072178;28;20032;-83
2023/06/06 08:07:03;;;;;;;0.10;0.10;;;21.70;99.90;;;;;;5071790;28;20020;-80
2023/06/06 08:09:30;;;;;;;0.40;0.40;;;21.80;99.90;;;;;;5069170;28;20025;-83
2023/06/06 08:11:56;;;;;;;0.82;0.82;;;21.80;99.90;;;;;;5070059;28;20012;-75
2023/06/06 08:14:22;;;;;;;0.10;0.10;;;21.60;99.90;;;;;;5043063;28;20619;-82
2023/06/06 08:16:49;;;;;;;0.30;0.30;;;21.60;99.90;;;;;;5060623;28;20257;-83
2023/06/06 08:19:14;;;;;;;0.20;0.20;;;21.80;99.90;;;;;;5043528;28;20112;-80
2023/06/06 08:21:40;;;;;;;0.30;0.30;;;21.90;99.90;;;;;;5027473;28;20112;-79
2023/06/06 08:24:06;;;;;;;0.10;0.10;;;22.00;99.90;;;;;;5060199;28;20132;-79
2023/06/06 08:26:32;;;;;;;0.20;0.20;;;21.90;99.90;;;;;;5060988;28;20723;-75
2023/06/06 08:28:57;;;;;;;0.20;0.20;;;21.40;99.90;;;;;;5061516;28;20012;-76
2023/06/06 08:31:24;;;;;;;0.10;0.10;;;22.00;99.90;;;;;;5062463;28;20078;-78
2023/06/06 08:33:50;;;;;;;0.68;0.68;;;21.90;99.90;;;;;;5059950;28;20063;-77
2023/06/06 08:36:16;;;;;;;0.10;0.10;;;19.00;99.90;;;;;;5063619;28;20788;-77
2023/06/06 08:38:45;;;;;;;0.40;0.40;;;22.00;99.90;;;;;;5071933;28;20074;-84
2023/06/06 08:41:13;;;;;;;2.33;1.25;;;22.10;99.90;;;;;;5074524;28;20009;-77
2023/06/06 08:43:40;;;;;;;0.10;0.10;;;20.30;99.90;;;;;;5075856;28;20039;-83
2023/06/06 08:46:06;;;;;;;0.10;0.10;;;22.40;99.90;;;;;;5065575;28;20034;-76
2023/06/06 08:48:34;;;;;;;0.13;0.13;;;22.20;99.90;;;;;;5069367;28;20016;-78
2023/06/06 08:51:04;;;;;;;0.10;0.10;;;22.30;99.90;;;;;;5069889;28;20772;-77
2023/06/06 08:53:31;;;;;;;0.30;0.30;;;22.00;99.90;;;;;;5042810;28;20052;-77
2023/06/06 08:55:57;;;;;;;0.45;0.45;;;22.00;99.90;;;;;;5060177;28;20020;-82
2023/06/06 08:58:23;;;;;;;5.95;1.75;;;21.90;99.90;;;;;;5064200;28;20024;-81
2023/06/06 09:00:53;;;;;;;2.10;2.00;;;21.70;99.90;;;;;;5064897;28;20021;-78
2023/06/06 09:03:19;;;;;;;0.25;0.25;;;21.70;99.90;;;;;;5066859;28;20021;-86
2023/06/06 09:05:46;;;;;;;0.85;0.85;;;21.40;99.90;;;;;;5068395;28;20062;-87
2023/06/06 09:08:13;;;;;;;0.35;0.35;;;21.40;99.90;;;;;;5065831;28;20009;-78
2023/06/06 09:10:38;;;;;;;0.10;0.10;;;21.40;99.90;;;;;;5066370;28;20092;-77
2023/06/06 09:13:08;;;;;;;0.20;0.20;;;21.30;99.90;;;;;;5047130;28;20112;-77
2023/06/06 09:15:34;;;;;;;0.47;0.47;;;18.90;99.90;;;;;;5048601;28;20120;-88
2023/06/06 09:18:13;;;;;;;1.60;1.52;;;21.60;99.90;;;;;;5070186;28;20072;-90
2023/06/06 09:20:39;;;;;;;1.10;1.10;;;21.70;99.90;;;;;;5054773;28;20032;-87
2023/06/06 09:23:13;;;;;;;0.10;0.10;;;21.80;99.90;;;;;;5054143;28;20035;-86
2023/06/06 09:25:47;;;;;;;0.70;0.47;;;23.30;99.90;;;;;;5049903;28;20279;-88
2023/06/06 09:28:13;;;;;;;0.20;0.20;;;22.90;99.90;;;;;;5066520;28;20107;-79
2023/06/06 09:30:39;;;;;;;0.10;0.10;;;22.90;99.90;;;;;;5065040;28;20099;-84
2023/06/06 09:33:05;;;;;;;0.20;0.20;;;22.40;99.90;;;;;;5066615;28;20013;-79
2023/06/06 09:35:41;;;;;;;0.30;0.30;;;22.90;99.90;;;;;;5066353;28;20031;-80
2023/06/06 09:38:20;;;;;;;2.92;2.83;;;22.60;99.90;;;;;;5045464;28;20029;-75
2023/06/06 09:40:53;;;;;;;2.95;2.85;;;22.90;99.90;;;;;;5062252;28;20025;-75
2023/06/06 09:43:27;;;;;;;0.20;0.20;;;22.80;99.90;;;;;;5043552;28;20342;-79
2023/06/06 09:45:55;;;;;;;0.10;0.10;;;22.50;99.90;;;;;;5061386;28;20029;-82
2023/06/06 09:48:26;;;;;;;0.10;0.10;;;22.80;99.90;;;;;;5061889;28;20009;-83
2023/06/06 09:50:52;;;;;;;0.90;0.90;;;23.00;99.90;;;;;;5069720;28;20028;-80
2023/06/06 09:53:23;;;;;;;0.10;0.10;;;23.30;99.90;;;;;;5072526;28;20092;-81
2023/06/06 09:55:50;;;;;;;0.40;0.40;;;23.50;99.90;;;;;;5075755;28;20028;-85
2023/06/06 09:58:16;;;;;;;0.65;0.65;;;23.60;99.90;;;;;;5066936;28;20048;-82
2023/06/06 10:00:45;;;;;;;0.10;0.10;;;24.60;99.90;;;;;;5062965;28;20013;-85
2023/06/06 10:03:18;;;;;;;0.10;0.10;;;23.60;99.90;;;;;;5044661;28;20608;-81
2023/06/06 10:05:50;;;;;;;0.45;0.45;;;23.70;99.90;;;;;;5061791;28;20560;-75
2023/06/06 10:08:19;;;;;;;0.32;0.30;;;23.80;99.90;;;;;;5061758;28;20020;-84
2023/06/06 10:10:49;;;;;;;0.10;0.10;;;23.80;99.90;;;;;;5061750;28;20568;-85
2023/06/06 10:13:25;;;;;;;0.32;0.22;;;23.80;99.90;;;;;;5062081;28;20031;-84
2023/06/06 10:15:51;;;;;;;0.10;0.10;;;23.90;99.90;;;;;;5061700;28;20025;-86
2023/06/06 10:18:16;;;;;;;0.10;0.10;;;24.00;99.90;;;;;;5062212;28;20032;-82
2023/06/06 10:20:44;;;;;;;0.20;0.20;;;24.00;99.90;;;;;;5064005;28;20028;-82
2023/06/06 10:23:10;;;;;;;0.10;0.10;;;23.90;99.90;;;;;;5063400;28;20012;-78
2023/06/06 10:25:37;;;;;;;0.30;0.30;;;23.70;99.90;;;;;;5063056;28;20161;-84
2023/06/06 10:28:21;;;;;;;0.17;0.17;;;23.80;99.90;;;;;;5064340;28;20059;-87
2023/06/06 10:31:15;;;;;;;0.20;0.20;;;23.20;99.90;;;;;;5061400;28;20306;-82
2023/06/06 10:33:54;;;;;;;0.10;0.10;;;23.20;99.90;;;;;;5062089;28;20029;-84
2023/06/06 10:36:20;;;;;;;0.13;0.13;;;23.50;99.90;;;;;;5061885;28;20044;-80
2023/06/06 10:39:28;;;;;;;0.15;0.15;;;23.20;99.90;;;;;;5060987;28;20071;-84
2023/06/06 10:42:05;;;;;;;0.10;0.10;;;22.80;99.90;;;;;;5061791;28;20110;-82
2023/06/06 10:44:38;;;;;;;0.20;0.20;;;22.50;99.90;;;;;;5061712;28;20103;-84
2023/06/06 10:47:30;;;;;;;0.93;0.63;;;22.40;99.90;;;;;;5044230;28;20028;-81
2023/06/06 10:50:11;;;;;;;0.10;0.10;;;22.30;99.90;;;;;;5062386;28;20033;-85
2023/06/06 10:52:50;;;;;;;0.25;0.25;;;22.20;99.90;;;;;;5061758;28;20097;-84
2023/06/06 10:55:20;;;;;;;0.25;0.25;;;22.10;99.90;;;;;;5044571;28;20056;-83
2023/06/06 10:58:03;;;;;;;0.20;0.20;;;21.80;99.90;;;;;;5061663;28;20025;-83
2023/06/06 11:00:34;;;;;;;0.10;0.10;;;21.70;99.90;;;;;;5042010;28;20529;-74
2023/06/06 11:03:13;;;;;;;0.10;0.10;;;21.60;99.90;;;;;;5058630;28;20329;-76
2023/06/06 11:06:11;;;;;;;0.20;0.20;;;21.60;99.90;;;;;;5039877;28;20384;-75
2023/06/06 11:08:44;;;;;;;0.10;0.10;;;21.50;99.90;;;;;;5050914;28;20079;-75
2023/06/06 11:11:20;;;;;;;0.20;0.20;;;21.50;99.90;;;;;;5058319;28;20055;-76
2023/06/06 11:13:56;;;;;;;2.85;2.75;;;21.30;99.90;;;;;;5040716;28;20036;-74
2023/06/06 11:16:51;;;;;;;2.75;2.55;;;21.40;99.90;;;;;;5059414;28;20625;-75
2023/06/06 11:19:19;;;;;;;1.05;1.02;;;21.30;99.90;;;;;;5067636;28;20036;-79
2023/06/06 11:21:48;;;;;;;0.20;0.20;;;21.30;99.90;;;;;;5069040;28;20164;-76
2023/06/06 11:24:15;;;;;;;0.35;0.35;;;21.10;99.90;;;;;;5045781;28;20020;-87
2023/06/06 11:26:41;;;;;;;0.40;0.40;;;21.20;99.90;;;;;;5061249;28;20031;-86
2023/06/06 11:29:09;;;;;;;0.20;0.20;;;21.30;99.90;;;;;;5061152;28;20316;-85
2023/06/06 11:31:36;;;;;;;0.32;0.32;;;21.40;99.90;;;;;;5061162;28;20465;-86
2023/06/06 11:34:06;;;;;;;0.52;0.52;;;21.40;99.90;;;;;;5061571;28;20056;-84
2023/06/06 11:36:37;;;;;;;0.20;0.20;;;21.40;99.90;;;;;;5061387;28;20047;-86
2023/06/06 11:39:05;;;;;;;0.10;0.10;;;21.30;99.90;;;;;;5061885;28;20024;-81
2023/06/06 11:41:36;;;;;;;0.28;0.28;;;20.70;99.90;;;;;;5062463;28;20012;-79
2023/06/06 11:44:02;;;;;;;0.20;0.20;;;21.30;99.90;;;;;;5061926;28;20042;-75
2023/06/06 11:46:30;;;;;;;0.20;0.20;;;21.10;99.90;;;;;;5061683;28;20097;-88
2023/06/06 11:48:57;;;;;;;0.30;0.30;;;21.20;99.90;;;;;;5062119;28;20467;-77
2023/06/06 11:51:22;;;;;;;2.90;1.95;;;21.20;99.90;;;;;;5061880;28;20124;-82
2023/06/06 11:53:48;;;;;;;0.40;0.40;;;21.20;99.90;;;;;;5061334;28;20116;-81
2023/06/06 11:56:18;;;;;;;0.10;0.10;;;21.30;99.90;;;;;;5063314;28;20059;-87
2023/06/06 11:58:44;;;;;;;0.10;0.10;;;21.40;99.90;;;;;;5068943;28;20016;-79
2023/06/06 12:01:10;;;;;;;0.10;0.10;;;21.30;99.90;;;;;;5067180;28;20020;-86
2023/06/06 12:03:40;;;;;;;0.10;0.10;;;22.50;99.90;;;;;;5071742;28;20096;-81
2023/06/06 12:06:07;;;;;;;0.47;0.47;;;21.50;99.90;;;;;;5064866;28;20036;-74
2023/06/06 12:08:37;;;;;;;0.40;0.40;;;21.60;99.90;;;;;;5062677;28;20080;-85
2023/06/06 12:11:23;;;;;;;0.10;0.10;;;21.60;99.90;;;;;;5063997;28;20012;-86
2023/06/06 12:13:50;;;;;;;0.20;0.20;;;21.70;99.90;;;;;;5060401;28;20678;-84
2023/06/06 12:16:29;;;;;;;0.20;0.20;;;21.90;99.90;;;;;;5062148;28;20115;-86
2023/06/06 12:18:55;;;;;;;0.10;0.10;;;22.20;99.90;;;;;;5062483;28;20024;-81
2023/06/06 12:21:22;;;;;;;0.20;0.20;;;22.50;99.90;;;;;;5060608;28;20716;-89
2023/06/06 12:23:48;;;;;;;0.10;0.10;;;22.90;99.90;;;;;;5061718;28;20016;-86
2023/06/06 12:26:18;;;;;;;0.10;0.10;;;23.30;99.90;;;;;;5060231;28;20032;-78
2023/06/06 12:29:00;;;;;;;0.20;0.20;;;23.70;99.90;;;;;;5060361;28;20411;-79
2023/06/06 12:31:29;;;;;;;0.10;0.10;;;24.50;99.90;;;;;;5060421;28;20024;-77
2023/06/06 12:33:57;;;;;;;0.10;0.10;;;24.80;99.90;;;;;;5061662;28;20018;-90
2023/06/06 12:36:25;;;;;;;0.10;0.10;;;25.20;99.10;;;;;;5044202;28;20051;-91
2023/06/06 12:39:01;;;;;;;0.10;0.10;;;25.20;95.00;;;;;;5062014;28;20043;-90
2023/06/06 12:41:40;;;;;;;0.10;0.10;;;24.80;96.30;;;;;;5061517;28;20486;-85
2023/06/06 12:44:16;;;;;;;0.10;0.10;;;24.60;96.30;;;;;;5059929;28;20694;-75
2023/06/06 12:46:45;;;;;;;0.10;0.10;;;24.50;95.30;;;;;;5062038;28;20029;-87
2023/06/06 12:49:11;;;;;;;1.27;0.68;;;24.70;95.40;;;;;;5062393;28;20017;-88
2023/06/06 12:51:40;;;;;;;0.10;0.10;;;24.30;96.40;;;;;;5060632;28;20043;-77
2023/06/06 12:54:06;;;;;;;0.30;0.30;;;24.50;96.80;;;;;;5060748;28;20114;-85
2023/06/06 12:56:32;;;;;;;0.75;0.47;;;25.20;94.80;;;;;;5063510;28;20079;-81